Prairie City, OR

1:33 AM PDT on October 26, 2014 (GMT -0700)
SW Prairie City | Change Station
CLOSE
Current Station
Personal Weather Station
Location: Prairie City, OR
Elevation: 3547 ft
Nearby Weather Stations

Elev 3547 ft 44.45 °N, 118.72 °W | Updated 3 minutes ago

Overcast
Overcast
42.4 °F
Feels Like 42 °F
N
1.0
Wind Variable Wind from West
Gusts 3.0 mph

Today
High -- | Low -- °F
--% Chance of Precip.
Yesterday
High -- | Low -- °F
Precip. -- in
7:24 AM 5:52 PM
Waxing Crescent, 6% visible
Pressure 29.94 in
Visibility 10.0 miles
Clouds Mostly Cloudy 4300 ft
Overcast 5000 ft
Windchill 42 °F
Dew Point 38 °F
Humidity 83%
Rainfall 0.00 in
Snow Depth Not available.
UV 0 out of 12
Pollen 2.70 out of 12
Air Quality Not available.
Flu Activity Sporadic
METAR KGCD 260815Z AUTO 26006KT 10SM BKN043 OVC050 08/05 A2994 RMK AO2 T00750050

More Conditions Fewer Conditions

Pressure 29.94 in
Visibility 10.0 miles
Clouds Mostly Cloudy 4300 ft
Overcast 5000 ft
Windchill 42 °F
Dew Point 38 °F
Humidity 83%
Rainfall 0.00 in
Snow Depth Not available.
UV 0 out of 12
Pollen 2.70 out of 12
Air Quality Not available.
Flu Activity Sporadic
METAR KGCD 260815Z AUTO 26006KT 10SM BKN043 OVC050 08/05 A2994 RMK AO2 T00750050

More Conditions Fewer Conditions

10-Day Weather Forecast

Almanac

Astronomy

Oct. 26, 2014 Rise Set
Actual Time 7:24 AM PDT 5:52 PM PDT
Civil Twilight 6:54 AM PDT 6:22 PM PDT
Nautical Twilight 6:20 AM PDT 6:56 PM PDT
Astronomical Twilight 5:46 AM PDT 7:30 PM PDT
Moon 10:11 AM PDT 8:03 PM PDT
Length of Visible Light 11h 28m
Length of Day
10h 28m
Tomorrow will be 2m 51s shorter.
Waxing Crescent, 6% of the Moon is Illuminated
Today
Waxing Crescent
Oct 30
First Quarter
Nov 6
Full
Nov 14
Last Quarter
Nov 22
New

Today's Extremes

State Highs State Lows

Community

WunderPhotos

Upload Photos

1,765,127 photos uploaded!

Nearby

Snow Depth

Station Depth Elevation
Blue Mountain Spring 0 in 5900 ft
Lake Creek R.S. 0 in 5200 ft
Starr Ridge 0 in 5300 ft
Tipton 0 in 5150 ft
Gold Center 0 in 5340 ft

Earthquake Activity

City Distance Mag. Time & Date
No recent earthquake activity has been reported nearby.
Minimum magnitude displayed is 2.5.

Coastal Water Temperatures

Place Temperature
No Stations Reporting

Nearby Weather Stations